createdAt,value
2022-11-13T00:02:10.015Z,42.30
2022-11-13T00:04:56.999Z,44.90
2022-11-13T00:07:43.572Z,48.80
2022-11-13T00:10:30.494Z,52.10
2022-11-13T00:13:17.202Z,39.50
2022-11-13T00:16:07.771Z,45.70
2022-11-13T00:18:54.083Z,47.80
2022-11-13T00:21:40.677Z,40.70
2022-11-13T00:24:27.325Z,45.30
2022-11-13T00:27:14.582Z,40.00
2022-11-13T00:30:01.060Z,40.70
2022-11-13T00:32:47.809Z,36.00
2022-11-13T00:35:34.416Z,38.20
2022-11-13T00:38:21.262Z,35.70
2022-11-13T00:41:08.313Z,43.80
2022-11-13T00:43:54.753Z,41.20
2022-11-13T00:46:41.628Z,39.20
2022-11-13T00:49:28.055Z,35.90
2022-11-13T00:52:14.794Z,36.50
2022-11-13T00:55:01.609Z,39.30
2022-11-13T00:57:48.458Z,37.90
2022-11-13T01:00:34.990Z,34.00
2022-11-13T01:03:21.561Z,34.70
2022-11-13T01:06:26.693Z,33.10
2022-11-13T01:09:13.179Z,32.90
2022-11-13T01:11:59.896Z,35.70
2022-11-13T01:14:46.355Z,34.70
2022-11-13T01:17:32.850Z,36.60
2022-11-13T01:20:19.562Z,36.60
2022-11-13T01:23:06.109Z,36.40
2022-11-13T01:25:52.729Z,32.60
2022-11-13T01:28:40.598Z,34.20
2022-11-13T01:31:31.416Z,32.90
2022-11-13T01:34:18.180Z,34.30
2022-11-13T01:37:05.125Z,30.50
2022-11-13T01:39:52.140Z,30.30
2022-11-13T01:42:38.786Z,32.30
2022-11-13T01:45:59.543Z,34.00
2022-11-13T01:49:12.299Z,30.30
2022-11-13T01:52:03.726Z,31.60
2022-11-13T01:54:57.252Z,31.10
2022-11-13T01:57:44.494Z,31.50
2022-11-13T02:00:30.811Z,32.30
2022-11-13T02:03:17.683Z,36.00
2022-11-13T02:06:04.811Z,32.20
2022-11-13T02:08:52.003Z,32.20
2022-11-13T02:11:39.677Z,28.10
2022-11-13T02:14:29.988Z,29.20
2022-11-13T02:17:32.959Z,29.10
2022-11-13T02:20:31.300Z,30.80
2022-11-13T02:23:51.419Z,27.80
2022-11-13T02:26:38.201Z,31.10
2022-11-13T02:29:24.647Z,30.30
2022-11-13T02:32:11.416Z,26.40
2022-11-13T02:34:57.918Z,29.80
2022-11-13T02:37:44.831Z,28.30
2022-11-13T02:40:33.430Z,29.40
2022-11-13T02:43:20.079Z,30.40
2022-11-13T02:46:06.919Z,29.80
2022-11-13T02:48:53.274Z,26.00
2022-11-13T02:51:40.111Z,27.50
2022-11-13T02:54:26.751Z,29.40
2022-11-13T02:57:13.436Z,27.10
2022-11-13T03:00:00.354Z,28.90
2022-11-13T03:02:46.836Z,28.40
2022-11-13T03:05:33.509Z,28.40
2022-11-13T03:08:20.393Z,27.20
2022-11-13T03:11:10.342Z,32.40
2022-11-13T03:13:56.672Z,31.00
2022-11-13T03:16:43.311Z,25.60
2022-11-13T03:19:30.186Z,27.30
2022-11-13T03:22:16.588Z,24.60
2022-11-13T03:25:08.944Z,30.20
2022-11-13T03:27:56.971Z,29.00
2022-11-13T03:30:43.607Z,24.80
2022-11-13T03:33:31.036Z,29.60
2022-11-13T03:36:17.269Z,31.50
2022-11-13T03:39:04.042Z,33.40
2022-11-13T03:41:50.354Z,34.50
2022-11-13T03:44:37.036Z,36.30
2022-11-13T03:47:23.829Z,31.20
2022-11-13T03:50:10.542Z,34.60
2022-11-13T03:52:57.354Z,32.60
2022-11-13T03:55:44.603Z,35.20
2022-11-13T03:58:31.268Z,32.80
2022-11-13T04:01:18.133Z,33.10
2022-11-13T04:04:05.123Z,34.20
2022-11-13T04:06:51.622Z,40.40
2022-11-13T04:09:38.116Z,37.10
2022-11-13T04:12:24.941Z,34.30
2022-11-13T04:15:11.675Z,30.50
2022-11-13T04:17:58.436Z,30.80
2022-11-13T04:20:45.267Z,28.00
2022-11-13T04:23:32.596Z,30.40
2022-11-13T04:26:19.652Z,27.50
2022-11-13T04:29:06.443Z,35.20
2022-11-13T04:31:53.351Z,32.90
2022-11-13T04:34:40.986Z,37.50
2022-11-13T04:37:27.817Z,32.00
2022-11-13T04:40:14.525Z,32.70
2022-11-13T04:43:00.966Z,35.60
2022-11-13T04:45:47.218Z,31.10
2022-11-13T04:48:34.107Z,33.40
2022-11-13T04:51:20.722Z,36.70
2022-11-13T04:54:07.275Z,40.40
2022-11-13T04:56:54.189Z,38.80
2022-11-13T04:59:40.872Z,33.00
2022-11-13T05:02:27.785Z,30.60
2022-11-13T05:05:14.791Z,33.80
2022-11-13T05:08:01.067Z,36.20
2022-11-13T05:10:47.840Z,36.60
2022-11-13T05:13:36.677Z,40.50
2022-11-13T05:16:23.379Z,38.60
2022-11-13T05:19:10.008Z,39.50
2022-11-13T05:21:56.824Z,41.00
2022-11-13T05:24:43.410Z,39.10
2022-11-13T05:27:30.606Z,42.50
2022-11-13T05:30:16.952Z,43.20
2022-11-13T05:33:03.656Z,42.60
2022-11-13T05:35:50.190Z,38.50
2022-11-13T05:38:37.664Z,41.40
2022-11-13T05:41:24.988Z,42.20
2022-11-13T05:44:11.625Z,44.80
2022-11-13T05:46:58.098Z,47.50
2022-11-13T05:49:45.335Z,41.80
2022-11-13T05:52:32.043Z,43.90
2022-11-13T05:55:22.170Z,54.70
2022-11-13T05:58:11.791Z,47.90
2022-11-13T06:01:32.926Z,45.10
2022-11-13T06:04:19.955Z,49.00
2022-11-13T06:07:06.679Z,52.10
2022-11-13T06:09:53.351Z,43.90
2022-11-13T06:12:40.078Z,49.00
2022-11-13T06:15:26.702Z,46.60
2022-11-13T06:18:13.301Z,47.10
2022-11-13T06:21:05.744Z,42.50
2022-11-13T06:23:52.638Z,38.40
2022-11-13T06:26:39.752Z,36.60
2022-11-13T06:29:26.442Z,24.80
2022-11-13T06:32:13.148Z,25.90
2022-11-13T06:34:59.802Z,19.40
2022-11-13T06:37:46.498Z,27.30
2022-11-13T06:40:33.302Z,27.40
2022-11-13T06:43:19.891Z,33.50
2022-11-13T06:46:15.038Z,31.30
2022-11-13T06:49:01.339Z,32.40
2022-11-13T06:51:48.152Z,34.20
2022-11-13T06:54:34.943Z,29.30
2022-11-13T06:57:21.530Z,35.50
2022-11-13T07:00:09.336Z,35.80
2022-11-13T07:02:55.912Z,41.70
2022-11-13T07:05:42.740Z,36.10
2022-11-13T07:08:29.545Z,41.70
2022-11-13T07:11:22.785Z,29.00
2022-11-13T07:14:12.631Z,38.60
2022-11-13T07:17:09.529Z,38.00
2022-11-13T07:19:57.014Z,33.00
2022-11-13T07:22:43.922Z,43.40
2022-11-13T07:25:31.212Z,33.40
2022-11-13T07:28:17.674Z,36.40
2022-11-13T07:31:04.851Z,27.90
2022-11-13T07:33:52.681Z,26.70
2022-11-13T07:36:39.430Z,26.90
2022-11-13T07:39:26.021Z,34.60
2022-11-13T07:42:13.290Z,36.00
2022-11-13T07:44:59.766Z,26.90
2022-11-13T07:47:46.119Z,38.70
2022-11-13T07:50:36.164Z,40.80
2022-11-13T07:53:23.175Z,40.40
2022-11-13T07:56:09.879Z,43.60
2022-11-13T07:58:56.735Z,37.70
2022-11-13T08:01:43.228Z,37.20
2022-11-13T08:04:30.755Z,31.50
2022-11-13T08:07:17.313Z,32.30
2022-11-13T08:10:04.375Z,31.20
2022-11-13T08:13:02.570Z,32.20
2022-11-13T08:15:49.225Z,31.30
2022-11-13T08:18:35.652Z,36.20
2022-11-13T08:21:22.031Z,23.20
2022-11-13T08:24:10.107Z,21.60
2022-11-13T08:26:57.307Z,23.90
2022-11-13T08:29:44.028Z,20.50
2022-11-13T08:32:30.875Z,36.20
2022-11-13T08:35:19.751Z,26.50
2022-11-13T08:38:09.279Z,28.50
2022-11-13T08:41:05.774Z,27.50
2022-11-13T08:43:55.100Z,27.80
2022-11-13T08:46:41.524Z,24.40
2022-11-13T08:49:28.319Z,17.60
2022-11-13T08:52:15.582Z,17.70
2022-11-13T08:55:02.297Z,27.50
2022-11-13T08:57:49.096Z,29.50
2022-11-13T09:00:35.563Z,28.40
2022-11-13T09:03:22.508Z,32.60
2022-11-13T09:06:09.805Z,32.30
2022-11-13T09:08:56.660Z,46.80
2022-11-13T09:11:43.116Z,50.60
2022-11-13T09:14:30.659Z,34.90
2022-11-13T09:17:18.071Z,37.10
2022-11-13T09:20:09.986Z,36.50
2022-11-13T09:23:03.311Z,41.80
2022-11-13T09:25:50.137Z,40.50
2022-11-13T09:28:37.148Z,33.20
2022-11-13T09:31:23.614Z,69.10
2022-11-13T09:34:10.581Z,54.10
2022-11-13T09:36:57.171Z,44.40
2022-11-13T09:39:43.951Z,39.20
2022-11-13T09:42:32.442Z,41.40
2022-11-13T09:45:19.056Z,45.70
2022-11-13T09:48:37.191Z,33.50
2022-11-13T09:51:37.367Z,44.20
2022-11-13T09:54:24.243Z,31.30
2022-11-13T09:57:42.865Z,35.70
2022-11-13T10:00:29.630Z,32.20
2022-11-13T10:03:59.192Z,38.70
2022-11-13T10:06:58.513Z,47.80
2022-11-13T10:10:13.024Z,47.10
2022-11-13T10:13:00.755Z,50.00
2022-11-13T10:15:53.235Z,32.10
2022-11-13T10:18:41.026Z,42.20
2022-11-13T10:21:43.986Z,37.70
2022-11-13T10:24:42.008Z,31.20
2022-11-13T10:27:28.603Z,37.80
2022-11-13T10:30:18.624Z,44.80
2022-11-13T10:33:09.525Z,39.30
2022-11-13T10:36:21.291Z,37.70
2022-11-13T10:39:09.835Z,30.70
2022-11-13T10:41:56.967Z,40.40
2022-11-13T10:44:57.740Z,41.00
2022-11-13T10:48:07.465Z,36.00
2022-11-13T10:51:07.974Z,31.20
2022-11-13T10:53:55.481Z,31.70
2022-11-13T10:56:41.870Z,23.30
2022-11-13T10:59:43.831Z,23.80
2022-11-13T11:02:30.205Z,25.20
2022-11-13T11:05:19.684Z,36.00
2022-11-13T11:08:11.036Z,29.10
2022-11-13T11:11:39.397Z,35.40
2022-11-13T11:14:34.055Z,41.10
2022-11-13T11:17:29.811Z,30.70
2022-11-13T11:20:37.708Z,32.10
2022-11-13T11:24:05.702Z,27.90
2022-11-13T11:27:19.534Z,22.20
2022-11-13T11:30:22.786Z,33.70
2022-11-13T11:33:18.692Z,34.60
2022-11-13T11:36:16.332Z,36.20
2022-11-13T11:39:37.646Z,24.40
2022-11-13T11:42:52.354Z,25.10
2022-11-13T11:45:46.571Z,29.20
2022-11-13T11:48:34.509Z,30.20
2022-11-13T11:51:34.867Z,28.30
2022-11-13T11:55:02.287Z,24.40
2022-11-13T11:58:25.699Z,25.60
2022-11-13T12:01:36.240Z,25.30
2022-11-13T12:05:04.743Z,29.50
2022-11-13T12:08:41.444Z,28.40
2022-11-13T12:11:33.603Z,30.90
2022-11-13T12:14:32.339Z,33.30
2022-11-13T12:18:03.191Z,32.20
2022-11-13T12:21:33.898Z,26.20
2022-11-13T12:25:14.829Z,26.70
2022-11-13T12:28:22.525Z,32.30
2022-11-13T12:31:39.364Z,30.20
2022-11-13T12:34:37.943Z,25.70
2022-11-13T12:37:41.986Z,26.10
2022-11-13T12:43:49.733Z,29.90
2022-11-13T12:46:40.048Z,31.80
2022-11-13T12:49:33.854Z,35.50
2022-11-13T12:55:34.843Z,25.50
2022-11-13T12:58:26.733Z,29.00
2022-11-13T13:01:18.812Z,32.00
2022-11-13T13:04:42.611Z,30.50
2022-11-13T13:08:06.054Z,31.20
2022-11-13T13:11:32.671Z,27.20
2022-11-13T13:15:13.137Z,28.20
2022-11-13T13:18:17.834Z,31.80
2022-11-13T13:21:12.572Z,26.60
2022-11-13T13:24:27.319Z,27.80
2022-11-13T13:27:26.395Z,32.70
2022-11-13T13:30:50.933Z,27.30
2022-11-13T13:33:53.612Z,24.50
2022-11-13T13:36:52.515Z,32.10
2022-11-13T13:39:58.775Z,33.30
2022-11-13T13:42:51.680Z,44.30
2022-11-13T13:46:09.179Z,43.60
2022-11-13T13:49:02.291Z,47.80
2022-11-13T13:51:52.746Z,46.30
2022-11-13T13:54:41.021Z,37.70
2022-11-13T13:57:28.520Z,37.60
2022-11-13T14:00:23.460Z,44.20
2022-11-13T14:03:29.313Z,49.10
2022-11-13T14:06:20.814Z,40.90
2022-11-13T14:09:18.636Z,37.10
2022-11-13T14:12:22.084Z,36.20
2022-11-13T14:15:23.550Z,35.30
2022-11-13T14:18:14.422Z,46.30
2022-11-13T14:21:16.042Z,43.70
2022-11-13T14:24:03.707Z,42.20
2022-11-13T14:26:53.127Z,41.40
2022-11-13T14:29:47.280Z,47.20
2022-11-13T14:32:45.752Z,44.90
2022-11-13T14:35:33.660Z,58.20
2022-11-13T14:38:24.871Z,56.80
2022-11-13T14:41:24.919Z,58.70
2022-11-13T14:44:12.619Z,62.50
2022-11-13T14:47:05.915Z,59.80
2022-11-13T14:49:52.859Z,57.10
2022-11-13T14:52:39.395Z,61.30
2022-11-13T14:55:30.596Z,58.00
2022-11-13T14:58:47.229Z,71.60
2022-11-13T15:01:34.044Z,61.50
2022-11-13T15:04:20.673Z,67.20
2022-11-13T15:07:29.513Z,54.90
2022-11-13T15:10:19.395Z,52.30
2022-11-13T15:13:12.869Z,53.60
2022-11-13T15:15:59.412Z,49.40
2022-11-13T15:18:57.537Z,51.20
2022-11-13T15:22:05.479Z,53.30
2022-11-13T15:24:53.388Z,54.10
2022-11-13T15:27:43.073Z,55.60
2022-11-13T15:30:30.507Z,48.50
2022-11-13T15:33:17.222Z,52.40
2022-11-13T15:36:04.173Z,46.40
2022-11-13T15:38:50.626Z,53.80
2022-11-13T15:41:37.336Z,49.00
2022-11-13T15:44:24.178Z,50.20
2022-11-13T15:47:32.199Z,58.50
2022-11-13T15:50:19.263Z,60.20
2022-11-13T15:53:10.387Z,61.20
2022-11-13T15:56:02.828Z,55.30
2022-11-13T15:58:49.658Z,60.30
2022-11-13T16:01:36.249Z,56.30
2022-11-13T16:04:24.156Z,62.80
2022-11-13T16:07:27.058Z,64.50
2022-11-13T16:10:15.536Z,62.20
2022-11-13T16:13:03.461Z,63.10
2022-11-13T16:15:49.831Z,69.00
2022-11-13T16:18:36.748Z,64.60
2022-11-13T16:21:23.739Z,69.40
2022-11-13T16:24:11.582Z,65.50
2022-11-13T16:26:58.591Z,72.60
2022-11-13T16:29:45.317Z,75.80
2022-11-13T16:32:31.837Z,71.40
2022-11-13T16:35:20.087Z,71.10
2022-11-13T16:38:13.327Z,76.10
2022-11-13T16:40:59.974Z,65.30
2022-11-13T16:43:46.764Z,75.50
2022-11-13T16:46:35.695Z,76.40
2022-11-13T16:49:22.503Z,77.20
2022-11-13T16:52:09.255Z,65.50
2022-11-13T16:54:55.975Z,58.40
2022-11-13T16:57:42.782Z,51.70
2022-11-13T17:00:29.438Z,49.70
2022-11-13T17:03:15.999Z,48.20
2022-11-13T17:06:02.621Z,52.00
2022-11-13T17:08:51.332Z,47.90
2022-11-13T17:11:38.035Z,48.90
2022-11-13T17:14:24.798Z,44.80
2022-11-13T17:17:14.940Z,44.60
2022-11-13T17:20:01.348Z,49.70
2022-11-13T17:22:50.668Z,43.30
2022-11-13T17:25:37.169Z,39.10
2022-11-13T17:28:23.966Z,43.50
2022-11-13T17:31:12.803Z,43.40
2022-11-13T17:33:59.300Z,40.90
2022-11-13T17:36:46.371Z,42.80
2022-11-13T17:39:32.820Z,39.30
2022-11-13T17:42:19.444Z,40.50
2022-11-13T17:45:06.866Z,37.70
2022-11-13T17:47:53.273Z,43.70
2022-11-13T17:50:39.867Z,41.10
2022-11-13T17:53:26.963Z,43.40
2022-11-13T17:56:13.985Z,38.40
2022-11-13T17:59:00.335Z,38.30
2022-11-13T18:01:48.221Z,41.20
2022-11-13T18:04:34.943Z,37.40
2022-11-13T18:07:21.740Z,36.50
2022-11-13T18:10:10.818Z,36.20
2022-11-13T18:12:57.653Z,33.70
2022-11-13T18:15:44.602Z,37.10
2022-11-13T18:18:31.170Z,43.30
2022-11-13T18:21:28.370Z,43.40
2022-11-13T18:24:19.393Z,40.20
2022-11-13T18:27:06.678Z,38.40
2022-11-13T18:29:53.510Z,36.40
2022-11-13T18:32:39.858Z,36.10
2022-11-13T18:35:26.372Z,47.00
2022-11-13T18:38:12.993Z,48.60
2022-11-13T18:41:12.131Z,40.60
2022-11-13T18:43:58.764Z,40.40
2022-11-13T18:46:45.480Z,37.40
2022-11-13T18:49:32.208Z,39.60
2022-11-13T18:52:18.931Z,39.20
2022-11-13T18:55:06.238Z,36.00
2022-11-13T18:57:52.712Z,41.10
2022-11-13T19:00:39.474Z,40.70
2022-11-13T19:03:26.187Z,34.10
2022-11-13T19:06:16.266Z,42.10
2022-11-13T19:09:12.135Z,41.00
2022-11-13T19:11:58.624Z,39.10
2022-11-13T19:14:45.405Z,33.40
2022-11-13T19:17:32.349Z,39.60
2022-11-13T19:20:19.102Z,37.10
2022-11-13T19:23:09.200Z,36.50
2022-11-13T19:25:56.050Z,38.00
2022-11-13T19:28:48.356Z,43.60
2022-11-13T19:31:35.436Z,46.70
2022-11-13T19:34:21.945Z,60.10
2022-11-13T19:37:08.749Z,54.50
2022-11-13T19:39:55.218Z,59.60
2022-11-13T19:42:42.171Z,55.80
2022-11-13T19:45:29.875Z,53.90
2022-11-13T19:48:18.960Z,80.40
2022-11-13T19:51:09.849Z,89.30
2022-11-13T19:53:59.175Z,98.70
2022-11-13T19:56:45.809Z,67.10
2022-11-13T19:59:33.341Z,100.30
2022-11-13T20:02:19.554Z,91.10
2022-11-13T20:05:07.054Z,63.10
2022-11-13T20:07:58.338Z,58.20
2022-11-13T20:10:44.989Z,62.40
2022-11-13T20:13:34.480Z,64.80
2022-11-13T20:16:22.019Z,58.40
2022-11-13T20:19:08.707Z,57.90
2022-11-13T20:21:55.709Z,32.50
2022-11-13T20:24:42.636Z,27.50
2022-11-13T20:27:29.386Z,28.60
2022-11-13T20:30:16.422Z,30.20
2022-11-13T20:33:03.220Z,27.90
2022-11-13T20:35:54.394Z,24.20
2022-11-13T20:38:44.137Z,21.40
2022-11-13T20:41:30.536Z,22.90
2022-11-13T20:44:17.367Z,22.70
2022-11-13T20:47:03.959Z,24.00
2022-11-13T20:49:50.275Z,22.00
2022-11-13T20:52:37.015Z,21.30
2022-11-13T20:55:23.593Z,24.00
2022-11-13T20:58:10.130Z,22.40
2022-11-13T21:01:26.951Z,22.90
2022-11-13T21:04:13.578Z,24.30
2022-11-13T21:07:00.389Z,23.70
2022-11-13T21:09:49.900Z,20.30
2022-11-13T21:12:36.999Z,21.10
2022-11-13T21:15:23.958Z,23.10
2022-11-13T21:18:11.044Z,20.60
2022-11-13T21:21:09.265Z,22.80
2022-11-13T21:23:58.154Z,26.80
2022-11-13T21:26:45.074Z,22.70
2022-11-13T21:29:31.823Z,25.90
2022-11-13T21:32:18.486Z,25.40
2022-11-13T21:35:05.864Z,22.90
2022-11-13T21:37:52.839Z,20.70
2022-11-13T21:40:39.218Z,21.10
2022-11-13T21:43:25.925Z,19.60
2022-11-13T21:46:14.361Z,20.70
2022-11-13T21:49:07.370Z,22.00
2022-11-13T21:51:54.126Z,18.40
2022-11-13T21:54:40.814Z,20.20
2022-11-13T21:57:27.665Z,20.70
2022-11-13T22:00:15.296Z,18.00
2022-11-13T22:03:02.107Z,15.80
2022-11-13T22:05:48.910Z,24.60
2022-11-13T22:08:35.600Z,22.90
2022-11-13T22:11:24.247Z,19.60
2022-11-13T22:14:10.861Z,16.20
2022-11-13T22:16:57.639Z,17.90
2022-11-13T22:19:44.477Z,14.00
2022-11-13T22:22:31.259Z,15.50
2022-11-13T22:25:18.460Z,16.50
2022-11-13T22:28:05.017Z,13.40
2022-11-13T22:30:51.724Z,15.30
2022-11-13T22:33:39.655Z,12.90
2022-11-13T22:36:36.218Z,16.90
2022-11-13T22:39:23.047Z,15.80
2022-11-13T22:42:09.874Z,14.50
2022-11-13T22:44:56.803Z,19.10
2022-11-13T22:47:43.523Z,13.60
2022-11-13T22:50:30.307Z,17.30
2022-11-13T22:53:17.153Z,14.20
2022-11-13T22:56:14.499Z,14.20
2022-11-13T22:59:03.509Z,15.60
2022-11-13T23:01:49.948Z,13.60
2022-11-13T23:04:36.784Z,15.30
2022-11-13T23:07:23.535Z,18.70
2022-11-13T23:10:10.775Z,17.10
2022-11-13T23:12:57.520Z,15.70
2022-11-13T23:15:44.212Z,20.30
2022-11-13T23:18:32.378Z,18.10
2022-11-13T23:21:19.868Z,18.50
2022-11-13T23:24:07.318Z,19.40
2022-11-13T23:26:53.770Z,18.90
2022-11-13T23:29:40.547Z,17.70
2022-11-13T23:32:27.352Z,23.50
2022-11-13T23:35:14.056Z,23.20
2022-11-13T23:38:00.332Z,22.20
2022-11-13T23:40:47.299Z,28.30
2022-11-13T23:44:02.202Z,22.50
2022-11-13T23:46:40.703Z,22.70
2022-11-13T23:49:27.315Z,20.50
2022-11-13T23:52:13.947Z,19.80
2022-11-13T23:55:00.835Z,19.40
2022-11-13T23:57:47.752Z,20.30
